Time;durP1;ratioP1;P1;durP2;ratioP2;P2;SDS_P1;SDS_P2;PMS_P1;PMS_P2;Temp;Humidity;BMP_temperature;BMP_pressure;BME280_temperature;BME280_humidity;BME280_pressure;Samples;Min_cycle;Max_cycle;Signal;HPM_P1;HPM_P2
2021/09/27 00:00:18;;;;;;;;;10.33;10.00;;;;;;;;4979331;28;51260;-59
2021/09/27 00:02:44;;;;;;;;;9.00;9.00;;;;;;;;4984829;28;51889;-60
2021/09/27 00:05:12;;;;;;;;;9.33;9.00;;;;;;;;4975172;28;51152;-60
2021/09/27 00:07:38;;;;;;;;;10.00;10.00;;;;;;;;4975119;28;51063;-60
2021/09/27 00:10:03;;;;;;;;;10.00;10.00;;;;;;;;4975374;28;51350;-60
2021/09/27 00:12:28;;;;;;;;;8.00;7.00;;;;;;;;4993731;28;53294;-60
2021/09/27 00:14:54;;;;;;;;;11.33;10.33;;;;;;;;4993070;28;51028;-60
2021/09/27 00:17:19;;;;;;;;;9.00;9.00;;;;;;;;4978177;28;51152;-60
2021/09/27 00:19:44;;;;;;;;;10.00;8.67;;;;;;;;4987832;28;51301;-60
2021/09/27 00:22:09;;;;;;;;;11.00;11.00;;;;;;;;4976597;28;51115;-60
2021/09/27 00:24:35;;;;;;;;;8.67;8.67;;;;;;;;4975244;28;51044;-59
2021/09/27 00:27:00;;;;;;;;;11.00;11.00;;;;;;;;4975013;28;51040;-60
2021/09/27 00:29:26;;;;;;;;;9.00;9.00;;;;;;;;4973773;28;50945;-60
2021/09/27 00:31:51;;;;;;;;;9.00;9.00;;;;;;;;4974681;28;52190;-60
2021/09/27 00:34:16;;;;;;;;;11.00;10.00;;;;;;;;4981475;28;51141;-60
2021/09/27 00:36:41;;;;;;;;;12.00;11.00;;;;;;;;4993521;28;50912;-60
2021/09/27 00:39:07;;;;;;;;;11.33;11.33;;;;;;;;4998576;28;50913;-60
2021/09/27 00:41:32;;;;;;;;;10.00;10.00;;;;;;;;4974476;28;51029;-60
2021/09/27 00:43:58;;;;;;;;;11.33;11.00;;;;;;;;4974542;28;51053;-60
2021/09/27 00:46:25;;;;;;;;;9.67;8.67;;;;;;;;4977444;28;51086;-60
2021/09/27 00:48:50;;;;;;;;;9.67;9.00;;;;;;;;4974747;28;51045;-60
2021/09/27 00:51:17;;;;;;;;;9.00;9.00;;;;;;;;4974135;28;51876;-60
2021/09/27 00:53:45;;;;;;;;;11.00;11.00;;;;;;;;4985175;28;51071;-60
2021/09/27 00:56:12;;;;;;;;;9.67;9.67;;;;;;;;4993753;28;51206;-60
2021/09/27 00:58:37;;;;;;;;;9.00;9.00;;;;;;;;4994363;28;51273;-60
2021/09/27 01:01:03;;;;;;;;;10.33;9.67;;;;;;;;4992266;28;52758;-59
2021/09/27 01:03:29;;;;;;;;;9.67;9.67;;;;;;;;4983709;28;51071;-59
2021/09/27 01:06:13;;;;;;;;;9.00;8.67;;;;;;;;4982751;28;51240;-59
2021/09/27 01:08:56;;;;;;;;;11.00;11.00;;;;;;;;4994389;28;51411;-60
2021/09/27 01:11:40;;;;;;;;;11.33;11.00;;;;;;;;4990967;28;51968;-60
2021/09/27 01:14:15;;;;;;;;;10.00;9.67;;;;;;;;5005307;28;50996;-59
2021/09/27 01:16:43;;;;;;;;;11.33;10.00;;;;;;;;4984413;28;51178;-60
2021/09/27 01:19:27;;;;;;;;;9.33;9.00;;;;;;;;4977965;28;50853;-60
2021/09/27 01:21:52;;;;;;;;;8.00;8.00;;;;;;;;4974019;28;50956;-62
2021/09/27 01:24:37;;;;;;;;;9.00;9.00;;;;;;;;4974551;28;50854;-60
2021/09/27 01:27:15;;;;;;;;;11.00;10.67;;;;;;;;4974286;28;50929;-60
2021/09/27 01:29:59;;;;;;;;;9.00;9.00;;;;;;;;4990632;28;51019;-60
2021/09/27 01:32:44;;;;;;;;;9.00;9.00;;;;;;;;4988756;28;52256;-60
2021/09/27 01:35:12;;;;;;;;;11.00;9.33;;;;;;;;4982202;28;51009;-60
2021/09/27 01:37:43;;;;;;;;;7.00;7.00;;;;;;;;4981076;28;51013;-60
2021/09/27 01:40:14;;;;;;;;;9.67;9.00;;;;;;;;4978733;28;51277;-60
2021/09/27 01:42:57;;;;;;;;;12.33;12.33;;;;;;;;4981374;28;52968;-59
2021/09/27 01:45:26;;;;;;;;;10.67;9.67;;;;;;;;4984369;28;51267;-59
2021/09/27 01:48:02;;;;;;;;;11.00;10.00;;;;;;;;4976069;28;51099;-60
2021/09/27 01:50:38;;;;;;;;;9.67;9.33;;;;;;;;4974062;28;51222;-60
2021/09/27 01:53:30;;;;;;;;;9.67;9.67;;;;;;;;4974410;28;50988;-59
2021/09/27 01:55:58;;;;;;;;;10.33;10.00;;;;;;;;4971448;28;51024;-60
2021/09/27 01:58:29;;;;;;;;;12.00;11.67;;;;;;;;4972486;28;51316;-60
2021/09/27 02:00:59;;;;;;;;;11.33;11.33;;;;;;;;4975166;28;50997;-60
2021/09/27 02:03:43;;;;;;;;;13.00;12.00;;;;;;;;4973306;28;52071;-60
2021/09/27 02:06:11;;;;;;;;;11.67;11.00;;;;;;;;4980475;28;50966;-60
2021/09/27 02:08:56;;;;;;;;;11.00;10.67;;;;;;;;4977741;28;51067;-59
2021/09/27 02:11:32;;;;;;;;;11.00;10.00;;;;;;;;4973500;28;51361;-60
2021/09/27 02:14:24;;;;;;;;;11.33;11.33;;;;;;;;4985453;28;50991;-60
2021/09/27 02:16:58;;;;;;;;;12.00;11.33;;;;;;;;4984724;28;51221;-60
2021/09/27 02:19:32;;;;;;;;;10.33;10.33;;;;;;;;4974555;28;50850;-60
2021/09/27 02:22:05;;;;;;;;;11.67;11.00;;;;;;;;4980333;28;51281;-60
2021/09/27 02:24:33;;;;;;;;;9.00;9.00;;;;;;;;4978128;28;51894;-60
2021/09/27 02:26:58;;;;;;;;;12.00;12.00;;;;;;;;4973407;28;50882;-60
2021/09/27 02:29:24;;;;;;;;;12.00;12.00;;;;;;;;4972919;28;51174;-60
2021/09/27 02:31:49;;;;;;;;;10.00;10.00;;;;;;;;4973150;28;50957;-60
2021/09/27 02:34:43;;;;;;;;;13.67;12.67;;;;;;;;4985389;28;51224;-59
2021/09/27 02:37:15;;;;;;;;;13.67;11.00;;;;;;;;4971649;28;51151;-60
2021/09/27 02:39:50;;;;;;;;;10.00;10.00;;;;;;;;4973619;28;51254;-60
2021/09/27 02:42:19;;;;;;;;;13.33;12.00;;;;;;;;4973402;28;50904;-59
2021/09/27 02:44:45;;;;;;;;;14.33;13.67;;;;;;;;4979548;28;53023;-59
2021/09/27 02:47:16;;;;;;;;;13.33;13.00;;;;;;;;4972793;28;51003;-59
2021/09/27 02:49:45;;;;;;;;;14.00;14.00;;;;;;;;4978063;28;51130;-59
2021/09/27 02:52:12;;;;;;;;;12.33;11.00;;;;;;;;4978765;28;51078;-59
2021/09/27 02:54:45;;;;;;;;;11.00;11.00;;;;;;;;4975326;28;52172;-60
2021/09/27 02:57:24;;;;;;;;;11.67;11.33;;;;;;;;4977521;28;51062;-60
2021/09/27 03:00:05;;;;;;;;;12.00;11.00;;;;;;;;4978030;28;51181;-59
2021/09/27 03:02:43;;;;;;;;;11.33;11.00;;;;;;;;4992403;28;51060;-60
2021/09/27 03:05:09;;;;;;;;;10.00;10.00;;;;;;;;4984936;28;51160;-60
2021/09/27 03:07:53;;;;;;;;;13.00;13.00;;;;;;;;4972976;28;51064;-60
2021/09/27 03:10:27;;;;;;;;;13.67;12.33;;;;;;;;4973213;28;51210;-60
2021/09/27 03:13:11;;;;;;;;;11.33;11.00;;;;;;;;4974712;28;51310;-59
2021/09/27 03:15:36;;;;;;;;;12.00;11.00;;;;;;;;4980498;28;51880;-60
2021/09/27 03:18:01;;;;;;;;;12.33;11.67;;;;;;;;4978405;28;51167;-60
2021/09/27 03:20:29;;;;;;;;;12.00;11.00;;;;;;;;4981180;28;51006;-60
2021/09/27 03:22:54;;;;;;;;;12.00;12.00;;;;;;;;4992721;28;51047;-60
2021/09/27 03:25:25;;;;;;;;;15.00;14.00;;;;;;;;4993440;28;51858;-60
2021/09/27 03:28:23;;;;;;;;;15.00;14.00;;;;;;;;4991351;28;50983;-59
2021/09/27 03:30:48;;;;;;;;;16.00;15.67;;;;;;;;4973991;28;51130;-59
2021/09/27 03:33:17;;;;;;;;;12.00;11.67;;;;;;;;4988635;28;51110;-60
2021/09/27 03:35:52;;;;;;;;;11.67;10.33;;;;;;;;4994552;28;51920;-60
2021/09/27 03:38:36;;;;;;;;;12.33;12.00;;;;;;;;5002233;28;51053;-60
2021/09/27 03:41:33;;;;;;;;;11.33;10.33;;;;;;;;4976112;28;51251;-60
2021/09/27 03:43:59;;;;;;;;;12.00;11.67;;;;;;;;4962944;28;51444;-60
2021/09/27 03:46:24;;;;;;;;;10.00;9.67;;;;;;;;4989468;28;51991;-60
2021/09/27 03:48:52;;;;;;;;;10.00;9.33;;;;;;;;4995072;28;50908;-59
2021/09/27 03:51:23;;;;;;;;;11.67;11.67;;;;;;;;4977492;28;51214;-60
2021/09/27 03:53:53;;;;;;;;;13.00;12.00;;;;;;;;4987325;28;51348;-60
2021/09/27 03:56:21;;;;;;;;;12.33;12.33;;;;;;;;4992118;28;51161;-59
2021/09/27 03:58:50;;;;;;;;;12.67;11.67;;;;;;;;4995140;28;51011;-59
2021/09/27 04:01:18;;;;;;;;;13.67;12.00;;;;;;;;4984024;28;51107;-59
2021/09/27 04:03:56;;;;;;;;;12.00;11.67;;;;;;;;4980641;28;51333;-60
2021/09/27 04:06:24;;;;;;;;;14.67;13.67;;;;;;;;4977092;28;51900;-60
2021/09/27 04:08:49;;;;;;;;;12.00;12.00;;;;;;;;4974775;28;51118;-60
2021/09/27 04:11:17;;;;;;;;;11.00;10.67;;;;;;;;4976705;28;51372;-59
2021/09/27 04:14:01;;;;;;;;;13.00;12.75;;;;;;;;4984108;28;50929;-60
2021/09/27 04:16:53;;;;;;;;;11.00;11.00;;;;;;;;4977404;28;52090;-59
2021/09/27 04:19:30;;;;;;;;;9.67;9.67;;;;;;;;4956572;28;51274;-60
2021/09/27 04:22:02;;;;;;;;;11.33;10.67;;;;;;;;4982768;28;51123;-60
2021/09/27 04:24:30;;;;;;;;;10.00;10.00;;;;;;;;4974953;28;51258;-59
2021/09/27 04:27:01;;;;;;;;;10.00;10.00;;;;;;;;4985345;28;51988;-59
2021/09/27 04:29:58;;;;;;;;;12.67;12.00;;;;;;;;4991833;28;51157;-58
2021/09/27 04:32:38;;;;;;;;;12.00;11.33;;;;;;;;4981758;28;51034;-59
2021/09/27 04:35:06;;;;;;;;;12.00;12.00;;;;;;;;4994269;28;51071;-59
2021/09/27 04:37:32;;;;;;;;;11.00;11.00;;;;;;;;4996026;28;53312;-59
2021/09/27 04:39:57;;;;;;;;;12.00;10.67;;;;;;;;4974156;28;51078;-58
2021/09/27 04:42:29;;;;;;;;;9.00;9.00;;;;;;;;4975220;28;51001;-59
2021/09/27 04:45:09;;;;;;;;;11.67;9.00;;;;;;;;4989167;28;51096;-59
2021/09/27 04:47:37;;;;;;;;;7.33;7.00;;;;;;;;4993868;28;50926;-59
2021/09/27 04:50:02;;;;;;;;;9.67;9.00;;;;;;;;4988814;28;51113;-58
2021/09/27 04:52:43;;;;;;;;;10.33;10.33;;;;;;;;4974430;28;50977;-58
2021/09/27 04:55:24;;;;;;;;;9.33;9.33;;;;;;;;4981188;28;51160;-59
2021/09/27 04:57:49;;;;;;;;;9.33;8.00;;;;;;;;4984801;28;52379;-58
2021/09/27 05:00:14;;;;;;;;;8.00;8.00;;;;;;;;4981801;28;51071;-59
2021/09/27 05:02:46;;;;;;;;;9.00;9.00;;;;;;;;4994776;28;51241;-59
2021/09/27 05:05:14;;;;;;;;;8.67;8.67;;;;;;;;4988001;28;52251;-60
2021/09/27 05:07:57;;;;;;;;;11.00;10.00;;;;;;;;4991767;28;51368;-59
2021/09/27 05:10:28;;;;;;;;;9.67;9.67;;;;;;;;4986318;28;51106;-60
2021/09/27 05:13:13;;;;;;;;;9.00;8.67;;;;;;;;4997175;28;50975;-60
2021/09/27 05:16:00;;;;;;;;;10.00;10.00;;;;;;;;4984242;28;51734;-60
2021/09/27 05:18:41;;;;;;;;;10.00;10.00;;;;;;;;4973870;28;51971;-59
2021/09/27 05:21:09;;;;;;;;;11.67;10.67;;;;;;;;4974800;28;51031;-59
2021/09/27 05:23:37;;;;;;;;;9.33;8.33;;;;;;;;4993891;28;51087;-59
2021/09/27 05:26:21;;;;;;;;;11.33;11.00;;;;;;;;4987620;28;51019;-60
2021/09/27 05:28:55;;;;;;;;;8.67;8.00;;;;;;;;5005878;28;52049;-60
2021/09/27 05:31:33;;;;;;;;;8.67;8.33;;;;;;;;4980531;28;51162;-60
2021/09/27 05:34:07;;;;;;;;;9.00;9.00;;;;;;;;4993724;28;51114;-59
2021/09/27 05:36:51;;;;;;;;;10.00;9.00;;;;;;;;4987684;28;51199;-60
2021/09/27 05:39:31;;;;;;;;;11.00;10.00;;;;;;;;4998972;28;52120;-59
2021/09/27 05:42:15;;;;;;;;;8.67;7.33;;;;;;;;4976062;28;51075;-59
2021/09/27 05:44:43;;;;;;;;;9.00;8.00;;;;;;;;4991517;28;50894;-61
2021/09/27 05:47:11;;;;;;;;;9.00;9.00;;;;;;;;4974508;28;50957;-61
2021/09/27 05:49:42;;;;;;;;;9.33;9.00;;;;;;;;4985242;28;52569;-59
2021/09/27 05:52:07;;;;;;;;;12.67;11.00;;;;;;;;4989955;28;50987;-59
2021/09/27 05:54:51;;;;;;;;;9.00;8.00;;;;;;;;4978910;28;51011;-59
2021/09/27 05:57:19;;;;;;;;;10.00;9.33;;;;;;;;4987385;28;51369;-59
2021/09/27 05:59:54;;;;;;;;;7.00;6.67;;;;;;;;4991012;28;51973;-60
2021/09/27 06:02:29;;;;;;;;;9.67;9.33;;;;;;;;4989420;28;51107;-60
2021/09/27 06:04:54;;;;;;;;;10.00;9.67;;;;;;;;4994119;28;50986;-60
2021/09/27 06:07:23;;;;;;;;;10.00;9.00;;;;;;;;4998612;28;51025;-59
2021/09/27 06:09:49;;;;;;;;;9.00;8.33;;;;;;;;4971301;28;51155;-59
2021/09/27 06:12:23;;;;;;;;;12.33;11.33;;;;;;;;4971079;28;51043;-59
2021/09/27 06:14:50;;;;;;;;;7.00;7.00;;;;;;;;4972766;28;51209;-59
2021/09/27 06:17:20;;;;;;;;;9.67;9.00;;;;;;;;4976255;28;51337;-59
2021/09/27 06:19:45;;;;;;;;;9.00;9.00;;;;;;;;4976748;28;51795;-59
2021/09/27 06:22:14;;;;;;;;;12.33;12.00;;;;;;;;4969658;28;51407;-60
2021/09/27 06:24:54;;;;;;;;;11.00;11.00;;;;;;;;4989951;28;51197;-60
2021/09/27 06:27:37;;;;;;;;;11.00;11.00;;;;;;;;4988996;28;50881;-59
2021/09/27 06:30:05;;;;;;;;;10.00;10.00;;;;;;;;4984582;28;51888;-60
2021/09/27 06:32:30;;;;;;;;;11.00;11.00;;;;;;;;4989680;28;51050;-59
2021/09/27 06:34:59;;;;;;;;;6.00;6.00;;;;;;;;4989398;28;51089;-60
2021/09/27 06:37:27;;;;;;;;;10.33;10.00;;;;;;;;4982199;28;51083;-59
2021/09/27 06:39:53;;;;;;;;;9.00;9.00;;;;;;;;4941385;28;1180373;-59
2021/09/27 06:42:18;;;;;;;;;11.33;11.00;;;;;;;;4973046;28;51039;-59
2021/09/27 06:44:45;;;;;;;;;7.33;7.33;;;;;;;;4973071;28;50979;-60
2021/09/27 06:47:11;;;;;;;;;10.33;9.33;;;;;;;;4971267;28;51727;-58
2021/09/27 06:49:37;;;;;;;;;8.67;8.00;;;;;;;;4990870;28;51946;-59
2021/09/27 06:52:02;;;;;;;;;9.33;9.00;;;;;;;;4976604;28;51039;-59
2021/09/27 06:54:27;;;;;;;;;9.00;8.33;;;;;;;;4982661;28;51070;-60
2021/09/27 06:56:53;;;;;;;;;8.33;8.33;;;;;;;;4984938;28;51080;-60
2021/09/27 06:59:20;;;;;;;;;10.00;9.00;;;;;;;;4985892;28;51719;-60
2021/09/27 07:01:46;;;;;;;;;9.00;9.00;;;;;;;;4995498;28;51141;-60
2021/09/27 07:04:11;;;;;;;;;9.33;9.33;;;;;;;;4986850;28;51075;-58
2021/09/27 07:06:36;;;;;;;;;9.00;8.67;;;;;;;;4984856;28;51161;-60
2021/09/27 07:09:02;;;;;;;;;13.33;12.33;;;;;;;;4979294;28;51883;-60
2021/09/27 07:11:27;;;;;;;;;9.00;9.00;;;;;;;;4991275;28;51011;-58
2021/09/27 07:13:52;;;;;;;;;12.00;12.00;;;;;;;;5001016;28;50869;-59
2021/09/27 07:16:17;;;;;;;;;9.00;8.00;;;;;;;;4986116;28;50897;-60
2021/09/27 07:18:43;;;;;;;;;7.00;7.00;;;;;;;;4983522;28;52021;-59
2021/09/27 07:21:09;;;;;;;;;7.00;7.00;;;;;;;;4975264;28;51000;-59
2021/09/27 07:23:41;;;;;;;;;10.00;8.00;;;;;;;;4975830;28;51156;-59
2021/09/27 07:26:07;;;;;;;;;7.67;7.67;;;;;;;;4975697;28;51267;-59
2021/09/27 07:28:33;;;;;;;;;9.67;9.00;;;;;;;;4987101;28;51095;-59
2021/09/27 07:30:58;;;;;;;;;8.33;7.33;;;;;;;;4975608;28;50895;-58
2021/09/27 07:33:23;;;;;;;;;10.00;9.00;;;;;;;;4974952;28;51020;-58
2021/09/27 07:35:48;;;;;;;;;9.00;9.00;;;;;;;;4981233;28;51401;-58
2021/09/27 07:38:14;;;;;;;;;9.67;8.67;;;;;;;;4995998;28;52211;-57
2021/09/27 07:40:39;;;;;;;;;8.00;8.00;;;;;;;;4975460;28;50994;-57
2021/09/27 07:43:07;;;;;;;;;9.33;9.00;;;;;;;;4985302;28;50885;-58
2021/09/27 07:45:34;;;;;;;;;9.67;9.67;;;;;;;;4985960;28;51003;-58
2021/09/27 07:48:01;;;;;;;;;8.00;8.00;;;;;;;;4992972;28;51819;-58
2021/09/27 07:50:26;;;;;;;;;9.00;8.67;;;;;;;;4988821;28;51086;-57
2021/09/27 07:52:52;;;;;;;;;10.67;9.67;;;;;;;;4974784;28;51037;-58
2021/09/27 07:55:17;;;;;;;;;9.00;9.00;;;;;;;;4973968;28;51023;-57
2021/09/27 07:57:42;;;;;;;;;8.67;8.33;;;;;;;;4985983;28;50861;-57
2021/09/27 08:00:08;;;;;;;;;11.00;10.33;;;;;;;;4994151;28;51100;-58
2021/09/27 08:02:33;;;;;;;;;9.33;9.00;;;;;;;;4986942;28;50925;-58
2021/09/27 08:04:59;;;;;;;;;17.67;10.67;;;;;;;;4979203;28;51255;-58
2021/09/27 08:07:24;;;;;;;;;10.67;9.67;;;;;;;;4994505;28;51808;-59
2021/09/27 08:09:49;;;;;;;;;9.67;9.67;;;;;;;;4994489;28;51008;-58
2021/09/27 08:12:16;;;;;;;;;9.33;9.33;;;;;;;;4993628;28;51031;-58
2021/09/27 08:14:41;;;;;;;;;12.33;12.00;;;;;;;;4982969;28;50972;-58
2021/09/27 08:17:07;;;;;;;;;10.00;10.00;;;;;;;;4991440;28;51082;-58
2021/09/27 08:19:33;;;;;;;;;7.00;7.00;;;;;;;;4978886;28;51024;-58
2021/09/27 08:21:58;;;;;;;;;10.33;10.00;;;;;;;;4978262;28;51181;-58
2021/09/27 08:24:23;;;;;;;;;9.67;9.67;;;;;;;;4988058;28;51310;-58
2021/09/27 08:26:48;;;;;;;;;10.00;10.00;;;;;;;;4989517;28;51174;-58
2021/09/27 08:29:14;;;;;;;;;12.00;11.00;;;;;;;;4979187;28;50936;-58
2021/09/27 08:31:40;;;;;;;;;12.00;10.67;;;;;;;;4994477;28;50931;-58
2021/09/27 08:34:06;;;;;;;;;11.00;10.67;;;;;;;;4994881;28;51316;-58
2021/09/27 08:36:32;;;;;;;;;12.00;11.00;;;;;;;;4992865;28;52292;-61
2021/09/27 08:38:57;;;;;;;;;8.00;8.00;;;;;;;;4982624;28;51100;-60
2021/09/27 08:41:37;;;;;;;;;9.00;8.67;;;;;;;;4990630;28;51057;-60
2021/09/27 08:44:21;;;;;;;;;11.00;11.00;;;;;;;;4993761;28;51245;-60
2021/09/27 08:47:12;;;;;;;;;9.00;9.00;;;;;;;;4992091;28;53376;-60
2021/09/27 08:49:41;;;;;;;;;11.00;10.67;;;;;;;;4968857;28;51260;-59
2021/09/27 08:52:08;;;;;;;;;9.67;9.00;;;;;;;;4973856;28;50967;-60
2021/09/27 08:54:34;;;;;;;;;12.67;12.33;;;;;;;;4973900;28;51182;-60
2021/09/27 08:57:18;;;;;;;;;11.00;11.00;;;;;;;;4979760;28;51073;-60
2021/09/27 08:59:53;;;;;;;;;17.67;15.67;;;;;;;;4974177;28;51099;-60
2021/09/27 09:02:31;;;;;;;;;15.67;13.33;;;;;;;;4973949;28;50975;-60
2021/09/27 09:04:56;;;;;;;;;11.67;10.00;;;;;;;;4974282;28;51187;-60
2021/09/27 09:07:22;;;;;;;;;9.67;9.67;;;;;;;;4973712;28;51862;-60
2021/09/27 09:09:52;;;;;;;;;11.33;10.67;;;;;;;;4978276;28;51106;-60
2021/09/27 09:12:26;;;;;;;;;10.00;9.33;;;;;;;;4993532;28;51066;-60
2021/09/27 09:14:57;;;;;;;;;14.00;13.00;;;;;;;;4976807;28;51465;-60
2021/09/27 09:17:40;;;;;;;;;10.00;9.33;;;;;;;;4983057;28;52400;-60
2021/09/27 09:20:28;;;;;;;;;11.33;10.67;;;;;;;;4987143;28;50943;-60
2021/09/27 09:22:54;;;;;;;;;11.33;11.33;;;;;;;;4968126;28;51124;-60
2021/09/27 09:25:26;;;;;;;;;11.67;10.67;;;;;;;;4973727;28;50932;-61
2021/09/27 09:27:52;;;;;;;;;19.00;17.67;;;;;;;;4974933;28;52869;-60
2021/09/27 09:30:18;;;;;;;;;15.67;13.33;;;;;;;;4983200;28;50873;-60
2021/09/27 09:32:43;;;;;;;;;12.00;11.33;;;;;;;;4973279;28;51102;-60
2021/09/27 09:35:14;;;;;;;;;11.33;11.33;;;;;;;;4979695;28;51063;-60
2021/09/27 09:37:40;;;;;;;;;10.00;8.33;;;;;;;;4980914;28;51114;-59
2021/09/27 09:40:14;;;;;;;;;8.33;7.67;;;;;;;;4973434;28;50936;-60
2021/09/27 09:42:40;;;;;;;;;10.00;9.00;;;;;;;;4973251;28;51206;-59
2021/09/27 09:45:11;;;;;;;;;11.00;11.00;;;;;;;;4984101;28;51286;-60
2021/09/27 09:47:36;;;;;;;;;9.67;8.67;;;;;;;;4972995;28;50975;-60
2021/09/27 09:50:07;;;;;;;;;12.67;10.33;;;;;;;;4983570;28;50994;-60
2021/09/27 09:53:02;;;;;;;;;11.00;10.00;;;;;;;;4992886;28;51075;-60
2021/09/27 09:55:36;;;;;;;;;8.67;8.67;;;;;;;;4988081;28;51176;-59
2021/09/27 09:58:07;;;;;;;;;9.67;9.67;;;;;;;;4992123;28;51310;-59
2021/09/27 10:00:51;;;;;;;;;11.33;9.67;;;;;;;;4991201;28;51015;-59
2021/09/27 10:03:36;;;;;;;;;9.00;8.33;;;;;;;;4991878;28;51076;-59
2021/09/27 10:06:08;;;;;;;;;9.00;8.00;;;;;;;;4992108;28;50936;-60
2021/09/27 10:08:35;;;;;;;;;12.33;12.00;;;;;;;;4992241;28;50994;-60
2021/09/27 10:11:05;;;;;;;;;8.67;8.67;;;;;;;;4992521;28;51237;-60
2021/09/27 10:13:33;;;;;;;;;10.33;9.33;;;;;;;;4984109;28;51118;-59
2021/09/27 10:15:59;;;;;;;;;8.33;7.67;;;;;;;;4982636;28;51285;-59
2021/09/27 10:18:24;;;;;;;;;8.00;8.00;;;;;;;;4984146;28;51274;-60
2021/09/27 10:20:59;;;;;;;;;8.67;8.67;;;;;;;;4972832;28;51118;-59
2021/09/27 10:23:33;;;;;;;;;7.33;7.00;;;;;;;;4972597;28;51134;-60
2021/09/27 10:26:17;;;;;;;;;7.67;7.00;;;;;;;;4973092;28;51147;-60
2021/09/27 10:28:43;;;;;;;;;9.00;8.33;;;;;;;;4985635;28;52791;-60
2021/09/27 10:31:09;;;;;;;;;8.33;6.00;;;;;;;;4971259;28;50910;-59
2021/09/27 10:33:40;;;;;;;;;8.00;7.00;;;;;;;;4980792;28;51034;-59
2021/09/27 10:36:08;;;;;;;;;8.00;8.00;;;;;;;;4971328;28;51959;-59
2021/09/27 10:38:41;;;;;;;;;14.00;13.33;;;;;;;;4991788;28;51665;-59
2021/09/27 10:41:15;;;;;;;;;12.00;10.00;;;;;;;;4975635;28;51117;-60
2021/09/27 10:43:40;;;;;;;;;15.67;12.67;;;;;;;;4974224;28;51144;-61
2021/09/27 10:46:06;;;;;;;;;8.00;8.00;;;;;;;;4975608;28;51357;-59
2021/09/27 10:48:31;;;;;;;;;7.00;7.00;;;;;;;;4975240;28;52248;-60
2021/09/27 10:51:02;;;;;;;;;9.67;9.67;;;;;;;;4986752;28;50947;-60
2021/09/27 10:53:46;;;;;;;;;10.00;9.00;;;;;;;;4976903;28;51175;-61
2021/09/27 10:56:22;;;;;;;;;11.33;10.67;;;;;;;;4975901;28;51124;-59
2021/09/27 10:58:58;;;;;;;;;9.33;8.67;;;;;;;;4975486;28;51054;-61
2021/09/27 11:01:29;;;;;;;;;8.33;6.00;;;;;;;;4975082;28;50999;-61
2021/09/27 11:03:55;;;;;;;;;8.00;8.00;;;;;;;;4975858;28;51047;-61
2021/09/27 11:06:34;;;;;;;;;11.67;10.67;;;;;;;;4975508;28;51127;-60
2021/09/27 11:09:02;;;;;;;;;9.00;9.00;;;;;;;;4975087;28;52144;-61
2021/09/27 11:11:28;;;;;;;;;13.33;12.00;;;;;;;;4975358;28;50963;-61
2021/09/27 11:13:54;;;;;;;;;9.33;9.33;;;;;;;;4999293;28;50868;-60
2021/09/27 11:16:22;;;;;;;;;6.67;6.67;;;;;;;;4982637;28;50931;-61
2021/09/27 11:19:04;;;;;;;;;7.33;6.33;;;;;;;;4975710;28;51734;-60
2021/09/27 11:21:35;;;;;;;;;9.00;9.00;;;;;;;;4984964;28;50992;-60
2021/09/27 11:24:03;;;;;;;;;8.33;8.00;;;;;;;;4993343;28;51222;-60
2021/09/27 11:26:31;;;;;;;;;10.33;10.00;;;;;;;;4994845;28;51115;-60
2021/09/27 11:29:14;;;;;;;;;7.00;5.33;;;;;;;;4979924;28;51099;-60
2021/09/27 11:31:41;;;;;;;;;4.00;3.67;;;;;;;;4975865;28;51044;-60
2021/09/27 11:34:08;;;;;;;;;1.67;1.00;;;;;;;;4974718;28;51221;-59
2021/09/27 11:36:46;;;;;;;;;1.33;1.33;;;;;;;;4975114;28;51052;-59
2021/09/27 11:39:11;;;;;;;;;5.00;3.33;;;;;;;;4974192;28;50954;-59
2021/09/27 11:41:37;;;;;;;;;3.00;3.00;;;;;;;;4975008;28;50956;-60
2021/09/27 11:44:05;;;;;;;;;4.00;3.67;;;;;;;;4974909;28;51069;-59
2021/09/27 11:46:37;;;;;;;;;2.33;2.00;;;;;;;;4973159;28;51046;-60
2021/09/27 11:49:32;;;;;;;;;5.00;4.67;;;;;;;;4986008;28;53147;-60
2021/09/27 11:52:00;;;;;;;;;2.33;2.33;;;;;;;;4974639;28;50921;-59
2021/09/27 11:54:31;;;;;;;;;4.00;2.33;;;;;;;;4974628;28;51231;-59
2021/09/27 11:56:57;;;;;;;;;3.00;3.00;;;;;;;;4974770;28;51011;-60
2021/09/27 11:59:30;;;;;;;;;2.67;2.33;;;;;;;;4973887;28;52800;-59
2021/09/27 12:02:01;;;;;;;;;3.33;3.33;;;;;;;;4974048;28;51124;-59
2021/09/27 12:04:29;;;;;;;;;4.00;4.00;;;;;;;;4974687;28;50897;-60
2021/09/27 12:06:57;;;;;;;;;3.00;3.00;;;;;;;;4974600;28;50979;-60
2021/09/27 12:09:27;;;;;;;;;4.67;3.33;;;;;;;;4972679;28;52858;-59
2021/09/27 12:11:53;;;;;;;;;3.00;2.33;;;;;;;;4979690;28;51332;-60
2021/09/27 12:14:22;;;;;;;;;3.00;3.00;;;;;;;;4982571;28;51060;-60
2021/09/27 12:16:49;;;;;;;;;3.00;3.00;;;;;;;;4989077;28;51072;-60
2021/09/27 12:19:17;;;;;;;;;2.33;2.33;;;;;;;;4975795;28;52017;-59
2021/09/27 12:21:48;;;;;;;;;4.33;2.33;;;;;;;;4974245;28;51094;-59
2021/09/27 12:24:23;;;;;;;;;1.67;1.00;;;;;;;;4975132;28;50869;-59
2021/09/27 12:26:54;;;;;;;;;3.00;3.00;;;;;;;;4985145;28;50997;-59
2021/09/27 12:29:22;;;;;;;;;4.67;4.67;;;;;;;;4974222;28;51238;-59
2021/09/27 12:31:50;;;;;;;;;3.00;3.00;;;;;;;;4973719;28;50910;-59
2021/09/27 12:34:18;;;;;;;;;4.67;4.00;;;;;;;;4973895;28;51052;-59
2021/09/27 12:36:43;;;;;;;;;4.00;3.33;;;;;;;;4975030;28;51192;-59
2021/09/27 12:39:09;;;;;;;;;5.67;5.67;;;;;;;;4979402;28;52071;-60
2021/09/27 12:41:35;;;;;;;;;6.33;6.33;;;;;;;;4974317;28;51139;-60
2021/09/27 12:44:24;;;;;;;;;11.67;11.00;;;;;;;;4973217;28;50857;-62
2021/09/27 12:46:49;;;;;;;;;4.00;3.00;;;;;;;;4978786;28;51327;-59
2021/09/27 12:49:18;;;;;;;;;3.33;3.33;;;;;;;;4991478;28;51764;-58
2021/09/27 12:51:50;;;;;;;;;2.00;2.00;;;;;;;;4990492;28;51050;-59
2021/09/27 12:54:15;;;;;;;;;1.00;1.00;;;;;;;;4973924;28;50906;-61
2021/09/27 12:56:41;;;;;;;;;1.67;1.00;;;;;;;;4976238;28;51065;-61
2021/09/27 12:59:13;;;;;;;;;2.67;1.67;;;;;;;;4973270;28;52264;-61
2021/09/27 13:01:43;;;;;;;;;1.33;1.33;;;;;;;;4973125;28;51124;-60
2021/09/27 13:04:12;;;;;;;;;2.00;2.00;;;;;;;;4973567;28;51271;-59
2021/09/27 13:06:52;;;;;;;;;2.00;1.00;;;;;;;;4975229;28;51191;-60
2021/09/27 13:09:26;;;;;;;;;2.67;2.00;;;;;;;;4978992;28;51171;-61
2021/09/27 13:12:10;;;;;;;;;2.00;2.00;;;;;;;;4973594;28;51054;-60
2021/09/27 13:14:38;;;;;;;;;2.00;2.00;;;;;;;;4973327;28;51182;-61
2021/09/27 13:17:09;;;;;;;;;2.00;1.00;;;;;;;;4978773;28;51053;-60
2021/09/27 13:19:37;;;;;;;;;3.00;2.00;;;;;;;;4977486;28;52326;-60
2021/09/27 13:22:03;;;;;;;;;2.00;2.00;;;;;;;;4973028;28;51071;-60
2021/09/27 13:24:30;;;;;;;;;2.00;2.00;;;;;;;;4973201;28;50976;-60
2021/09/27 13:27:01;;;;;;;;;5.67;4.67;;;;;;;;4973168;28;51093;-60
2021/09/27 13:29:47;;;;;;;;;3.00;2.00;;;;;;;;4973036;28;50986;-60
2021/09/27 13:32:28;;;;;;;;;3.00;3.00;;;;;;;;4972366;28;50971;-60
2021/09/27 13:35:05;;;;;;;;;3.00;2.00;;;;;;;;4985355;28;50952;-60
2021/09/27 13:37:47;;;;;;;;;3.00;2.00;;;;;;;;4990863;28;50943;-60
2021/09/27 13:40:30;;;;;;;;;3.33;3.33;;;;;;;;4972385;28;52275;-60
2021/09/27 13:43:14;;;;;;;;;4.00;3.00;;;;;;;;4973628;28;50995;-60
2021/09/27 13:45:39;;;;;;;;;1.67;1.67;;;;;;;;4972897;28;51019;-60
2021/09/27 13:48:05;;;;;;;;;2.33;2.00;;;;;;;;4972373;28;51104;-60
2021/09/27 13:50:30;;;;;;;;;2.00;2.00;;;;;;;;4973263;28;51870;-60
2021/09/27 13:52:59;;;;;;;;;3.00;2.33;;;;;;;;4972220;28;50968;-60
2021/09/27 13:55:25;;;;;;;;;2.67;2.00;;;;;;;;4972500;28;51060;-60
2021/09/27 13:57:50;;;;;;;;;2.00;2.00;;;;;;;;4972158;28;51200;-60
2021/09/27 14:00:16;;;;;;;;;3.00;3.00;;;;;;;;4970686;28;53239;-60
2021/09/27 14:02:41;;;;;;;;;3.67;3.00;;;;;;;;4972185;28;50982;-60
2021/09/27 14:05:07;;;;;;;;;2.00;2.00;;;;;;;;4988035;28;50968;-60
2021/09/27 14:07:33;;;;;;;;;1.00;1.00;;;;;;;;4972522;28;51121;-60
2021/09/27 14:09:58;;;;;;;;;3.00;2.00;;;;;;;;4973855;28;51652;-60
2021/09/27 14:12:23;;;;;;;;;1.00;1.00;;;;;;;;4983336;28;50988;-60
2021/09/27 14:14:49;;;;;;;;;1.67;1.67;;;;;;;;4984979;28;51253;-61
2021/09/27 14:17:14;;;;;;;;;4.00;3.00;;;;;;;;4986482;28;51221;-60
2021/09/27 14:19:39;;;;;;;;;4.00;3.67;;;;;;;;4983519;28;51204;-60
2021/09/27 14:22:05;;;;;;;;;7.00;6.00;;;;;;;;4979905;28;51238;-61
2021/09/27 14:24:31;;;;;;;;;5.00;4.33;;;;;;;;4985804;28;51173;-60
2021/09/27 14:26:58;;;;;;;;;5.00;4.00;;;;;;;;4978539;28;51475;-59
2021/09/27 14:29:23;;;;;;;;;6.33;5.67;;;;;;;;4983506;28;52995;-60
2021/09/27 14:31:49;;;;;;;;;2.67;2.67;;;;;;;;4980823;28;51162;-60
2021/09/27 14:34:14;;;;;;;;;3.00;2.67;;;;;;;;4982244;28;51366;-61
2021/09/27 14:36:39;;;;;;;;;1.00;1.00;;;;;;;;4984316;28;51469;-60
2021/09/27 14:39:05;;;;;;;;;3.00;3.00;;;;;;;;4984229;28;51759;-60
2021/09/27 14:41:30;;;;;;;;;2.00;2.00;;;;;;;;4981781;28;51202;-61
2021/09/27 14:43:55;;;;;;;;;1.33;1.00;;;;;;;;4982437;28;51456;-60
2021/09/27 14:46:21;;;;;;;;;1.67;1.67;;;;;;;;4984056;28;51131;-60
2021/09/27 14:48:48;;;;;;;;;11.67;10.67;;;;;;;;4978699;28;53936;-61
2021/09/27 14:51:14;;;;;;;;;1.33;1.33;;;;;;;;4985010;28;51356;-60